Time;durP1;ratioP1;P1;durP2;ratioP2;P2;SDS_P1;SDS_P2;PMS_P1;PMS_P2;Temp;Humidity;BMP_temperature;BMP_pressure;BME280_temperature;BME280_humidity;BME280_pressure;Samples;Min_cycle;Max_cycle;Signal;HPM_P1;HPM_P2
2022/01/03 00:01:20;;;;;;;10.57;2.80;;;;;;;;;;5078077;28;20048;-76
2022/01/03 00:03:47;;;;;;;10.45;2.55;;;;;;;;;;5093018;28;20133;-76
2022/01/03 00:06:14;;;;;;;9.13;2.60;;;;;;;;;;5077728;28;20084;-77
2022/01/03 00:08:43;;;;;;;9.70;2.33;;;;;;;;;;5094701;28;20056;-78
2022/01/03 00:11:14;;;;;;;14.48;2.85;;;;;;;;;;5091850;28;20139;-76
2022/01/03 00:13:44;;;;;;;12.95;3.70;;;;;;;;;;5075895;28;20055;-75
2022/01/03 00:16:11;;;;;;;12.40;3.00;;;;;;;;;;5094574;28;20131;-76
2022/01/03 00:18:37;;;;;;;13.50;3.13;;;;;;;;;;5080529;28;20048;-77
2022/01/03 00:21:06;;;;;;;9.25;2.92;;;;;;;;;;5075837;28;20055;-76
2022/01/03 00:23:35;;;;;;;9.48;3.17;;;;;;;;;;5094821;28;20080;-76
2022/01/03 00:26:02;;;;;;;11.30;3.08;;;;;;;;;;5095496;28;20039;-75
2022/01/03 00:28:49;;;;;;;17.88;3.80;;;;;;;;;;5092670;28;20058;-77
2022/01/03 00:31:16;;;;;;;18.15;4.38;;;;;;;;;;5094964;28;20055;-75
2022/01/03 00:33:42;;;;;;;13.77;3.90;;;;;;;;;;5076493;28;20044;-75
2022/01/03 00:36:08;;;;;;;15.60;3.65;;;;;;;;;;5093831;28;20376;-76
2022/01/03 00:38:35;;;;;;;17.40;3.95;;;;;;;;;;5076489;28;20048;-75
2022/01/03 00:41:02;;;;;;;13.57;3.17;;;;;;;;;;5076181;28;20044;-76
2022/01/03 00:43:29;;;;;;;14.00;3.30;;;;;;;;;;5094089;28;20109;-74
2022/01/03 00:45:56;;;;;;;14.25;3.80;;;;;;;;;;5093503;28;20131;-75
2022/01/03 00:48:23;;;;;;;16.80;3.90;;;;;;;;;;5093682;28;20048;-76
2022/01/03 00:50:49;;;;;;;15.48;4.13;;;;;;;;;;5093995;28;20063;-75
2022/01/03 00:53:15;;;;;;;14.38;3.75;;;;;;;;;;5061969;28;20385;-74
2022/01/03 00:56:00;;;;;;;17.50;4.35;;;;;;;;;;5093463;28;20055;-76
2022/01/03 00:58:30;;;;;;;17.67;3.85;;;;;;;;;;5075454;28;20078;-74
2022/01/03 01:00:56;;;;;;;18.17;4.00;;;;;;;;;;5076405;28;20375;-75
2022/01/03 01:03:27;;;;;;;17.15;4.25;;;;;;;;;;5077840;28;20051;-75
2022/01/03 01:05:54;;;;;;;20.00;4.82;;;;;;;;;;5094186;28;20059;-74
2022/01/03 01:08:23;;;;;;;18.38;5.30;;;;;;;;;;5077865;28;20050;-75
2022/01/03 01:10:51;;;;;;;19.30;4.30;;;;;;;;;;5091578;28;20060;-75
2022/01/03 01:13:18;;;;;;;23.58;4.65;;;;;;;;;;5094034;28;20048;-74
2022/01/03 01:15:44;;;;;;;22.65;5.22;;;;;;;;;;5093411;28;20052;-73
2022/01/03 01:18:10;;;;;;;20.25;5.05;;;;;;;;;;5092301;28;20040;-74
2022/01/03 01:20:37;;;;;;;26.58;5.00;;;;;;;;;;5091085;28;20446;-74
2022/01/03 01:23:04;;;;;;;23.48;4.68;;;;;;;;;;5075107;28;20064;-75
2022/01/03 01:28:03;;;;;;;19.65;4.63;;;;;;;;;;5091461;28;20052;-75
2022/01/03 01:30:29;;;;;;;24.13;5.15;;;;;;;;;;5073988;28;20047;-75
2022/01/03 01:33:03;;;;;;;19.83;5.20;;;;;;;;;;5073802;28;20104;-75
2022/01/03 01:35:53;;;;;;;20.38;4.55;;;;;;;;;;5078408;28;20452;-74
2022/01/03 01:38:24;;;;;;;21.40;5.28;;;;;;;;;;5093408;28;20059;-75
2022/01/03 01:40:53;;;;;;;23.40;4.65;;;;;;;;;;5076130;28;20052;-75
2022/01/03 01:43:25;;;;;;;19.15;4.50;;;;;;;;;;5076225;28;20040;-75
2022/01/03 01:45:52;;;;;;;21.27;4.60;;;;;;;;;;5093738;28;20108;-74
2022/01/03 01:48:20;;;;;;;19.08;4.68;;;;;;;;;;5076968;28;20425;-76
2022/01/03 01:50:49;;;;;;;33.38;5.20;;;;;;;;;;5075078;28;20052;-76
2022/01/03 01:53:20;;;;;;;18.35;4.70;;;;;;;;;;5093281;28;20093;-75
2022/01/03 01:55:48;;;;;;;23.05;4.82;;;;;;;;;;5075879;28;20048;-74
2022/01/03 01:58:24;;;;;;;21.30;4.00;;;;;;;;;;5093664;28;20054;-74
2022/01/03 02:00:56;;;;;;;24.95;5.85;;;;;;;;;;5065798;28;20364;-75
2022/01/03 02:03:22;;;;;;;22.65;5.80;;;;;;;;;;5074859;28;20048;-74
2022/01/03 02:05:55;;;;;;;20.65;4.15;;;;;;;;;;5094092;28;20055;-74
2022/01/03 02:08:21;;;;;;;20.70;4.28;;;;;;;;;;5099911;28;20048;-75
2022/01/03 02:10:59;;;;;;;23.10;5.45;;;;;;;;;;5097221;28;20040;-75
2022/01/03 02:13:25;;;;;;;26.13;5.18;;;;;;;;;;5082114;28;20051;-75
2022/01/03 02:16:03;;;;;;;21.58;4.93;;;;;;;;;;5078724;28;20482;-75
2022/01/03 02:18:29;;;;;;;23.70;5.28;;;;;;;;;;5077308;28;20044;-76
2022/01/03 02:20:55;;;;;;;25.27;5.20;;;;;;;;;;5079084;28;20051;-75
2022/01/03 02:23:22;;;;;;;30.85;5.20;;;;;;;;;;5076908;28;20040;-76
2022/01/03 02:25:48;;;;;;;22.02;5.20;;;;;;;;;;5078085;28;20051;-77
2022/01/03 02:28:16;;;;;;;22.73;5.20;;;;;;;;;;5078718;28;20379;-76
2022/01/03 02:30:42;;;;;;;19.80;4.78;;;;;;;;;;5077767;28;20052;-74
2022/01/03 02:33:08;;;;;;;18.77;5.28;;;;;;;;;;5088344;28;20054;-75
2022/01/03 02:35:38;;;;;;;26.50;5.32;;;;;;;;;;5095713;28;20066;-75
2022/01/03 02:38:05;;;;;;;24.40;5.88;;;;;;;;;;5077303;28;20151;-75
2022/01/03 02:40:31;;;;;;;22.05;4.95;;;;;;;;;;5079057;28;20047;-74
2022/01/03 02:42:57;;;;;;;23.80;5.30;;;;;;;;;;5096132;28;20174;-75
2022/01/03 02:45:24;;;;;;;23.13;6.60;;;;;;;;;;5075074;28;20070;-75
2022/01/03 02:47:52;;;;;;;24.55;4.95;;;;;;;;;;5077224;28;20048;-74
2022/01/03 02:50:19;;;;;;;21.80;4.85;;;;;;;;;;5074154;28;20062;-75
2022/01/03 02:52:46;;;;;;;21.50;5.82;;;;;;;;;;5094401;28;20048;-75
2022/01/03 02:55:13;;;;;;;23.73;5.07;;;;;;;;;;5076797;28;20067;-76
2022/01/03 02:58:06;;;;;;;27.50;5.20;;;;;;;;;;5095825;28;20054;-74
2022/01/03 03:00:32;;;;;;;20.77;4.93;;;;;;;;;;5057952;28;20140;-74
2022/01/03 03:02:58;;;;;;;24.45;5.82;;;;;;;;;;5095525;28;20419;-75
2022/01/03 03:05:24;;;;;;;19.73;5.35;;;;;;;;;;5078273;28;20052;-73
2022/01/03 03:07:53;;;;;;;27.77;6.43;;;;;;;;;;5093270;28;20367;-74
2022/01/03 03:10:20;;;;;;;26.45;5.97;;;;;;;;;;5076915;28;20052;-76
2022/01/03 03:12:47;;;;;;;21.73;5.75;;;;;;;;;;5095201;28;20065;-74
2022/01/03 03:15:13;;;;;;;29.90;5.63;;;;;;;;;;5077052;28;20422;-76
2022/01/03 03:17:40;;;;;;;24.55;5.15;;;;;;;;;;5093368;28;20044;-74
2022/01/03 03:20:08;;;;;;;24.27;4.90;;;;;;;;;;5077335;28;20430;-76
2022/01/03 03:22:34;;;;;;;34.20;6.05;;;;;;;;;;5094933;28;20075;-74
2022/01/03 03:25:02;;;;;;;26.17;5.22;;;;;;;;;;5078053;28;20451;-75
2022/01/03 03:27:28;;;;;;;28.98;6.53;;;;;;;;;;5074778;28;20050;-76
2022/01/03 03:29:54;;;;;;;26.83;6.95;;;;;;;;;;5095830;28;20054;-75
2022/01/03 03:32:20;;;;;;;31.30;5.88;;;;;;;;;;5096404;28;20121;-76
2022/01/03 03:34:47;;;;;;;33.30;5.32;;;;;;;;;;5077530;28;20349;-75
2022/01/03 03:37:14;;;;;;;23.48;5.28;;;;;;;;;;5078297;28;20062;-76
2022/01/03 03:39:40;;;;;;;26.23;5.40;;;;;;;;;;5078099;28;20051;-74
2022/01/03 03:42:07;;;;;;;31.02;6.50;;;;;;;;;;5078654;28;20044;-74
2022/01/03 03:44:33;;;;;;;26.55;6.45;;;;;;;;;;5080024;28;20375;-74
2022/01/03 03:46:59;;;;;;;28.40;5.97;;;;;;;;;;5096322;28;20150;-74
2022/01/03 03:49:25;;;;;;;26.42;5.47;;;;;;;;;;5077118;28;20137;-75
2022/01/03 03:51:51;;;;;;;25.33;6.82;;;;;;;;;;5092147;28;20468;-74
2022/01/03 03:54:17;;;;;;;27.75;5.65;;;;;;;;;;5078780;28;20379;-75
2022/01/03 03:56:44;;;;;;;27.90;5.70;;;;;;;;;;5076677;28;20044;-75
2022/01/03 03:59:10;;;;;;;35.88;5.85;;;;;;;;;;5077205;28;20089;-74
2022/01/03 04:01:36;;;;;;;29.60;5.88;;;;;;;;;;5093381;28;20471;-74
2022/01/03 04:04:03;;;;;;;24.55;5.32;;;;;;;;;;5077374;28;20371;-74
2022/01/03 04:06:29;;;;;;;20.60;5.30;;;;;;;;;;5077326;28;20058;-75
2022/01/03 04:08:55;;;;;;;39.03;6.55;;;;;;;;;;5093455;28;20444;-75
2022/01/03 04:11:21;;;;;;;24.88;5.63;;;;;;;;;;5077211;28;20475;-75
2022/01/03 04:13:47;;;;;;;26.83;5.47;;;;;;;;;;5077381;28;20062;-76
2022/01/03 04:16:14;;;;;;;25.60;5.15;;;;;;;;;;5093936;28;20557;-75
2022/01/03 04:18:40;;;;;;;25.30;5.30;;;;;;;;;;5076330;28;20527;-75
2022/01/03 04:21:06;;;;;;;26.17;6.75;;;;;;;;;;5085310;28;20063;-74
2022/01/03 04:23:32;;;;;;;28.17;5.38;;;;;;;;;;5078243;28;20048;-76
2022/01/03 04:25:59;;;;;;;25.65;6.03;;;;;;;;;;5076423;28;20070;-76
2022/01/03 04:28:25;;;;;;;29.55;6.30;;;;;;;;;;5093116;28;20052;-74
2022/01/03 04:30:51;;;;;;;26.95;6.47;;;;;;;;;;5094564;28;20071;-75
2022/01/03 04:33:18;;;;;;;27.42;6.55;;;;;;;;;;5075125;28;20048;-76
2022/01/03 04:35:44;;;;;;;27.15;5.22;;;;;;;;;;5073575;28;20044;-76
2022/01/03 04:38:10;;;;;;;24.17;5.65;;;;;;;;;;5074319;28;20072;-75
2022/01/03 04:40:36;;;;;;;25.33;5.38;;;;;;;;;;5094036;28;20446;-75
2022/01/03 04:43:03;;;;;;;25.88;5.28;;;;;;;;;;5075808;28;20360;-75
2022/01/03 04:45:29;;;;;;;22.88;5.40;;;;;;;;;;5077669;28;20098;-75
2022/01/03 04:47:56;;;;;;;29.30;5.85;;;;;;;;;;5093658;28;20345;-74
2022/01/03 04:50:22;;;;;;;30.45;7.25;;;;;;;;;;5094783;28;20052;-75
2022/01/03 04:52:48;;;;;;;30.50;5.95;;;;;;;;;;5075433;28;20043;-75
2022/01/03 04:55:14;;;;;;;25.83;6.28;;;;;;;;;;5093819;28;20055;-74
2022/01/03 04:57:40;;;;;;;25.48;6.30;;;;;;;;;;5093390;28;20174;-74
2022/01/03 05:00:07;;;;;;;25.70;5.80;;;;;;;;;;5076524;28;20051;-75
2022/01/03 05:02:33;;;;;;;24.90;5.78;;;;;;;;;;5093408;28;20075;-74
2022/01/03 05:05:00;;;;;;;26.80;6.30;;;;;;;;;;5092916;28;20048;-75
2022/01/03 05:07:26;;;;;;;28.98;6.00;;;;;;;;;;5092985;28;20054;-74
2022/01/03 05:09:52;;;;;;;29.27;6.28;;;;;;;;;;5077037;28;20049;-73
2022/01/03 05:12:18;;;;;;;25.52;5.72;;;;;;;;;;5076770;28;20047;-75
2022/01/03 05:14:44;;;;;;;33.80;6.22;;;;;;;;;;5092828;28;20447;-75
2022/01/03 05:17:10;;;;;;;29.38;5.80;;;;;;;;;;5075002;28;20480;-73
2022/01/03 05:19:37;;;;;;;32.05;5.90;;;;;;;;;;5075797;28;20047;-75
2022/01/03 05:22:03;;;;;;;29.85;6.68;;;;;;;;;;5075577;28;20043;-75
2022/01/03 05:24:33;;;;;;;25.60;5.57;;;;;;;;;;5094365;28;20056;-75
2022/01/03 05:26:59;;;;;;;25.20;6.05;;;;;;;;;;5073270;28;20104;-75
2022/01/03 05:29:25;;;;;;;28.70;5.57;;;;;;;;;;5076109;28;20071;-74
2022/01/03 05:31:51;;;;;;;24.88;6.05;;;;;;;;;;5093697;28;20048;-75
2022/01/03 05:34:17;;;;;;;29.95;7.05;;;;;;;;;;5075798;28;20048;-73
2022/01/03 05:36:43;;;;;;;27.02;6.35;;;;;;;;;;5093033;28;20209;-74
2022/01/03 05:39:09;;;;;;;32.63;6.75;;;;;;;;;;5078359;28;20067;-75
2022/01/03 05:41:35;;;;;;;35.72;6.38;;;;;;;;;;5075357;28;20117;-74
2022/01/03 05:44:01;;;;;;;32.53;6.13;;;;;;;;;;5078839;28;20048;-75
2022/01/03 05:46:27;;;;;;;28.25;6.90;;;;;;;;;;5079856;28;20052;-74
2022/01/03 05:48:53;;;;;;;30.60;7.03;;;;;;;;;;5080224;28;20048;-76
2022/01/03 05:51:19;;;;;;;31.08;6.28;;;;;;;;;;5098411;28;20043;-73
2022/01/03 05:53:45;;;;;;;27.95;5.10;;;;;;;;;;5082833;28;20474;-75
2022/01/03 05:56:11;;;;;;;27.42;5.82;;;;;;;;;;5097606;28;20463;-75
2022/01/03 05:58:37;;;;;;;27.13;5.88;;;;;;;;;;5093790;28;20394;-74
2022/01/03 06:01:04;;;;;;;33.88;6.38;;;;;;;;;;5079423;28;20463;-75
2022/01/03 06:03:35;;;;;;;36.28;7.50;;;;;;;;;;5096315;28;20047;-74
2022/01/03 06:08:28;;;;;;;30.80;6.65;;;;;;;;;;5077850;28;20052;-74
2022/01/03 06:10:54;;;;;;;22.30;5.78;;;;;;;;;;5079408;28;20047;-76
2022/01/03 06:13:21;;;;;;;29.60;6.20;;;;;;;;;;5096940;28;20506;-74
2022/01/03 06:15:47;;;;;;;21.88;5.53;;;;;;;;;;5077534;28;20063;-75
2022/01/03 06:18:14;;;;;;;33.40;7.28;;;;;;;;;;5075998;28;20055;-73
2022/01/03 06:20:44;;;;;;;30.50;6.90;;;;;;;;;;5079297;28;20533;-74
2022/01/03 06:23:11;;;;;;;31.95;6.65;;;;;;;;;;5078297;28;20056;-76
2022/01/03 06:25:37;;;;;;;31.88;6.90;;;;;;;;;;5097952;28;20048;-74
2022/01/03 06:28:07;;;;;;;34.35;6.50;;;;;;;;;;5093131;28;20048;-74
2022/01/03 06:30:37;;;;;;;28.98;6.75;;;;;;;;;;5078768;28;20048;-76
2022/01/03 06:33:04;;;;;;;31.63;6.03;;;;;;;;;;5095876;28;20098;-76
2022/01/03 06:35:30;;;;;;;29.77;6.40;;;;;;;;;;5096579;28;20044;-75
2022/01/03 06:37:57;;;;;;;23.27;6.47;;;;;;;;;;5079402;28;20052;-75
2022/01/03 06:40:23;;;;;;;31.00;6.05;;;;;;;;;;5096273;28;20116;-75
2022/01/03 06:42:49;;;;;;;32.15;6.68;;;;;;;;;;5096301;28;20123;-75
2022/01/03 06:45:16;;;;;;;29.25;6.47;;;;;;;;;;5079044;28;20047;-74
2022/01/03 06:47:42;;;;;;;28.13;6.22;;;;;;;;;;5096861;28;20067;-75
2022/01/03 06:50:09;;;;;;;24.85;5.93;;;;;;;;;;5080877;28;20051;-74
2022/01/03 06:52:35;;;;;;;24.92;5.80;;;;;;;;;;5094922;28;20051;-75
2022/01/03 06:55:01;;;;;;;30.67;5.75;;;;;;;;;;5078641;28;20051;-76
2022/01/03 06:57:27;;;;;;;28.90;6.85;;;;;;;;;;5095016;28;20119;-74
2022/01/03 06:59:53;;;;;;;29.58;6.53;;;;;;;;;;5099189;28;20051;-75
2022/01/03 07:02:21;;;;;;;32.47;6.53;;;;;;;;;;5096681;28;20468;-75
2022/01/03 07:04:47;;;;;;;31.20;5.97;;;;;;;;;;5097232;28;20055;-76
2022/01/03 07:07:13;;;;;;;28.85;6.38;;;;;;;;;;5078965;28;20047;-75
2022/01/03 07:09:39;;;;;;;36.67;7.15;;;;;;;;;;5079172;28;20106;-75
2022/01/03 07:12:06;;;;;;;35.45;6.65;;;;;;;;;;5078502;28;20055;-76
2022/01/03 07:19:45;;;;;;;30.75;5.85;;;;;;;;;;5096751;28;20048;-76
2022/01/03 07:22:11;;;;;;;30.05;7.30;;;;;;;;;;5077784;28;20056;-75
2022/01/03 07:24:38;;;;;;;28.15;6.32;;;;;;;;;;5078629;28;20062;-75
2022/01/03 07:27:05;;;;;;;26.10;6.82;;;;;;;;;;5078791;28;20105;-76
2022/01/03 07:29:32;;;;;;;31.08;6.05;;;;;;;;;;5096135;28;20060;-74
2022/01/03 07:31:58;;;;;;;28.80;6.40;;;;;;;;;;5103214;28;20078;-75
2022/01/03 07:34:24;;;;;;;26.98;6.10;;;;;;;;;;5080134;28;20051;-75
2022/01/03 07:36:50;;;;;;;32.45;6.82;;;;;;;;;;5078350;28;20048;-75
2022/01/03 07:39:16;;;;;;;28.33;6.40;;;;;;;;;;5078083;28;20055;-74
2022/01/03 07:41:42;;;;;;;32.17;6.20;;;;;;;;;;5077806;28;20051;-74
2022/01/03 07:44:08;;;;;;;29.95;5.93;;;;;;;;;;5078682;28;20105;-75
2022/01/03 07:46:34;;;;;;;38.50;6.97;;;;;;;;;;5077694;28;20051;-74
2022/01/03 07:49:01;;;;;;;28.23;6.03;;;;;;;;;;5078114;28;20043;-74
2022/01/03 07:51:27;;;;;;;33.28;6.80;;;;;;;;;;5077862;28;20055;-75
2022/01/03 07:53:53;;;;;;;27.40;6.07;;;;;;;;;;5095613;28;20056;-74
2022/01/03 07:56:19;;;;;;;34.80;6.80;;;;;;;;;;5095585;28;20051;-75
2022/01/03 07:58:46;;;;;;;36.53;6.30;;;;;;;;;;5078050;28;20375;-74
2022/01/03 08:01:12;;;;;;;26.48;6.50;;;;;;;;;;5095297;28;20128;-75
2022/01/03 08:03:38;;;;;;;23.65;5.90;;;;;;;;;;5095860;28;20052;-74
2022/01/03 08:06:05;;;;;;;30.20;6.70;;;;;;;;;;5102937;28;20140;-76
2022/01/03 08:08:31;;;;;;;34.13;6.60;;;;;;;;;;5095395;28;20471;-77
2022/01/03 08:10:57;;;;;;;27.25;6.40;;;;;;;;;;5095463;28;20044;-76
2022/01/03 08:13:23;;;;;;;28.60;6.97;;;;;;;;;;5094847;28;20466;-75
2022/01/03 08:15:49;;;;;;;31.33;6.38;;;;;;;;;;5095342;28;20500;-74
2022/01/03 08:18:15;;;;;;;30.23;5.70;;;;;;;;;;5077447;28;20402;-75
2022/01/03 08:20:41;;;;;;;31.77;6.00;;;;;;;;;;5095190;28;20459;-77
2022/01/03 08:23:08;;;;;;;31.42;6.35;;;;;;;;;;5076600;28;20468;-74
2022/01/03 08:25:37;;;;;;;31.85;6.63;;;;;;;;;;5077289;28;20410;-76
2022/01/03 08:28:06;;;;;;;25.02;5.13;;;;;;;;;;5093389;28;20035;-75
2022/01/03 08:30:33;;;;;;;31.25;7.10;;;;;;;;;;5094988;28;20129;-75
2022/01/03 08:32:59;;;;;;;27.63;5.93;;;;;;;;;;5094150;28;20050;-75
2022/01/03 08:35:25;;;;;;;28.77;5.47;;;;;;;;;;5087113;27;20347;-77
2022/01/03 08:37:52;;;;;;;33.70;6.25;;;;;;;;;;5117747;27;20119;-76
2022/01/03 08:40:18;;;;;;;30.08;5.68;;;;;;;;;;5099003;28;20047;-75
2022/01/03 08:42:44;;;;;;;32.53;6.40;;;;;;;;;;5097139;28;20048;-76
2022/01/03 08:45:11;;;;;;;26.42;6.00;;;;;;;;;;5097510;28;20103;-74
2022/01/03 08:47:37;;;;;;;27.45;6.10;;;;;;;;;;5097435;28;20062;-77
2022/01/03 08:50:04;;;;;;;28.52;6.10;;;;;;;;;;5097631;28;20051;-75
2022/01/03 08:52:30;;;;;;;30.73;6.45;;;;;;;;;;5095638;28;20067;-74
2022/01/03 08:54:56;;;;;;;30.70;5.80;;;;;;;;;;5080947;28;20047;-74
2022/01/03 08:57:22;;;;;;;25.58;6.40;;;;;;;;;;5097974;28;20100;-72
2022/01/03 08:59:49;;;;;;;27.88;6.00;;;;;;;;;;5097154;28;20047;-75
2022/01/03 09:02:16;;;;;;;31.95;7.18;;;;;;;;;;5114370;28;20047;-74
2022/01/03 09:04:42;;;;;;;34.47;6.95;;;;;;;;;;5114074;28;20056;-73
2022/01/03 09:07:09;;;;;;;31.13;6.47;;;;;;;;;;5097426;28;20134;-74
2022/01/03 09:09:35;;;;;;;34.03;6.72;;;;;;;;;;5114425;27;20046;-73
2022/01/03 09:12:02;;;;;;;27.40;5.93;;;;;;;;;;5113810;28;20051;-74
2022/01/03 09:14:28;;;;;;;23.77;5.68;;;;;;;;;;5097125;28;20119;-73
2022/01/03 09:16:54;;;;;;;29.80;6.45;;;;;;;;;;5114687;28;20047;-74
2022/01/03 09:19:21;;;;;;;26.83;5.30;;;;;;;;;;5114461;28;20055;-75
2022/01/03 09:21:47;;;;;;;30.48;6.10;;;;;;;;;;5096400;28;20055;-74
2022/01/03 09:24:27;;;;;;;27.83;5.80;;;;;;;;;;5117708;28;20398;-74
2022/01/03 09:29:38;;;;;;;29.05;6.78;;;;;;;;;;5096972;28;20054;-76
2022/01/03 09:32:06;;;;;;;30.52;6.43;;;;;;;;;;5124363;28;20046;-77
2022/01/03 09:34:32;;;;;;;28.27;6.53;;;;;;;;;;5114919;28;20039;-76
2022/01/03 09:36:58;;;;;;;33.47;6.75;;;;;;;;;;5114374;28;20044;-77
2022/01/03 09:39:24;;;;;;;28.75;5.55;;;;;;;;;;5114677;28;20048;-75
2022/01/03 09:41:57;;;;;;;24.77;6.82;;;;;;;;;;5096689;28;20040;-76
2022/01/03 09:44:28;;;;;;;29.48;6.25;;;;;;;;;;5111820;28;20048;-77
2022/01/03 09:46:54;;;;;;;32.38;6.90;;;;;;;;;;5104979;28;20043;-76
2022/01/03 09:49:21;;;;;;;35.65;6.72;;;;;;;;;;5097066;28;20463;-78
2022/01/03 09:51:47;;;;;;;27.17;6.28;;;;;;;;;;5114860;28;20046;-77
2022/01/03 09:54:19;;;;;;;23.90;5.45;;;;;;;;;;5128752;28;20051;-75
2022/01/03 09:56:45;;;;;;;30.90;6.35;;;;;;;;;;5114312;28;20126;-76
2022/01/03 09:59:11;;;;;;;28.17;6.25;;;;;;;;;;5096955;28;20071;-76
2022/01/03 10:01:37;;;;;;;21.95;5.00;;;;;;;;;;5115241;28;20071;-76
2022/01/03 10:04:03;;;;;;;32.17;6.18;;;;;;;;;;5080037;28;20050;-78
2022/01/03 10:06:31;;;;;;;26.83;6.07;;;;;;;;;;5114227;28;20100;-77
2022/01/03 10:08:57;;;;;;;25.85;5.63;;;;;;;;;;5114354;28;20055;-78
2022/01/03 10:11:24;;;;;;;23.13;6.00;;;;;;;;;;5095201;28;20079;-77
2022/01/03 10:13:51;;;;;;;22.70;5.32;;;;;;;;;;5114603;28;20395;-76
2022/01/03 10:16:17;;;;;;;28.77;5.57;;;;;;;;;;5113072;28;20059;-78
2022/01/03 10:18:46;;;;;;;26.05;6.03;;;;;;;;;;5094317;28;20060;-75
2022/01/03 10:21:12;;;;;;;25.35;5.20;;;;;;;;;;5093908;28;20067;-78
2022/01/03 10:23:55;;;;;;;30.90;5.97;;;;;;;;;;5076655;28;20109;-76
2022/01/03 10:26:21;;;;;;;21.75;6.05;;;;;;;;;;5096826;28;20048;-77
2022/01/03 10:28:47;;;;;;;30.23;5.35;;;;;;;;;;5097954;28;20043;-78
2022/01/03 10:31:18;;;;;;;21.40;5.18;;;;;;;;;;5098923;28;20050;-78
2022/01/03 10:33:48;;;;;;;25.42;5.90;;;;;;;;;;5077426;28;20359;-77
2022/01/03 10:36:30;;;;;;;25.35;5.65;;;;;;;;;;5079623;28;20040;-76
2022/01/03 10:38:58;;;;;;;23.08;5.43;;;;;;;;;;5109449;28;20063;-76
2022/01/03 10:41:25;;;;;;;22.70;5.43;;;;;;;;;;5074618;28;20044;-76
2022/01/03 10:43:55;;;;;;;25.80;5.78;;;;;;;;;;5079439;28;20051;-75
2022/01/03 10:46:28;;;;;;;22.90;5.97;;;;;;;;;;5096916;28;20051;-76
2022/01/03 10:49:19;;;;;;;26.83;5.38;;;;;;;;;;5079825;28;20126;-75
2022/01/03 10:51:46;;;;;;;31.13;6.70;;;;;;;;;;5081014;28;20052;-75
2022/01/03 10:54:14;;;;;;;25.83;5.50;;;;;;;;;;5098676;28;20043;-74
2022/01/03 10:56:44;;;;;;;24.63;5.97;;;;;;;;;;5099535;28;20123;-77
2022/01/03 10:59:22;;;;;;;25.75;5.97;;;;;;;;;;5100572;28;20052;-76
2022/01/03 11:02:01;;;;;;;22.27;5.55;;;;;;;;;;5099192;27;20047;-76
2022/01/03 11:13:08;;;;;;;23.63;5.15;;;;;;;;;;5097989;28;20047;-77
2022/01/03 11:15:34;;;;;;;28.00;5.72;;;;;;;;;;5081726;28;20043;-77
2022/01/03 11:18:11;;;;;;;27.83;6.40;;;;;;;;;;5099414;28;20062;-76
2022/01/03 11:20:37;;;;;;;24.55;5.75;;;;;;;;;;5081762;28;20126;-77
2022/01/03 11:23:04;;;;;;;20.48;5.50;;;;;;;;;;5098562;28;20052;-77
2022/01/03 11:25:32;;;;;;;27.50;6.75;;;;;;;;;;5082994;28;20370;-76
2022/01/03 11:27:58;;;;;;;27.70;6.53;;;;;;;;;;5113086;27;20058;-77
2022/01/03 11:30:25;;;;;;;30.80;6.55;;;;;;;;;;5111417;28;20048;-78
2022/01/03 11:32:51;;;;;;;26.67;5.47;;;;;;;;;;5116351;28;20063;-79
2022/01/03 11:35:18;;;;;;;28.40;5.50;;;;;;;;;;5116726;28;20044;-78
2022/01/03 11:37:47;;;;;;;26.60;5.60;;;;;;;;;;5077148;28;20040;-78
2022/01/03 11:40:15;;;;;;;22.50;5.00;;;;;;;;;;5078137;28;20117;-78
2022/01/03 11:42:42;;;;;;;19.90;5.32;;;;;;;;;;5078250;28;20048;-76
2022/01/03 11:45:08;;;;;;;21.42;5.30;;;;;;;;;;5098222;28;20070;-77
2022/01/03 11:47:36;;;;;;;21.65;4.70;;;;;;;;;;5097586;28;20051;-77
2022/01/03 11:50:02;;;;;;;23.85;5.57;;;;;;;;;;5116277;28;20055;-76
2022/01/03 11:52:29;;;;;;;31.98;6.75;;;;;;;;;;5098436;28;20130;-76
2022/01/03 11:54:55;;;;;;;24.40;6.10;;;;;;;;;;5115744;28;20047;-76
2022/01/03 12:05:45;;;;;;;25.45;5.05;;;;;;;;;;5097709;28;20355;-76
2022/01/03 12:08:22;;;;;;;24.48;5.40;;;;;;;;;;5090524;28;20135;-76
2022/01/03 12:10:48;;;;;;;23.35;5.57;;;;;;;;;;5094922;28;20114;-76
2022/01/03 12:13:14;;;;;;;26.17;5.30;;;;;;;;;;5112705;27;20374;-77
2022/01/03 12:15:42;;;;;;;23.55;5.20;;;;;;;;;;5115488;28;20058;-76
2022/01/03 12:18:28;;;;;;;24.02;5.30;;;;;;;;;;5096932;28;20098;-77
2022/01/03 12:20:54;;;;;;;19.95;5.00;;;;;;;;;;5076732;28;20051;-77
2022/01/03 12:23:50;;;;;;;25.90;6.10;;;;;;;;;;5115787;28;20062;-77
2022/01/03 12:26:23;;;;;;;21.85;5.63;;;;;;;;;;5098059;28;20055;-77
2022/01/03 12:29:08;;;;;;;24.65;5.32;;;;;;;;;;5097957;28;20054;-76
2022/01/03 12:31:53;;;;;;;28.70;6.22;;;;;;;;;;5096863;27;20100;-81
2022/01/03 12:34:20;;;;;;;16.05;5.20;;;;;;;;;;5096999;28;20429;-77
2022/01/03 12:37:06;;;;;;;29.52;5.53;;;;;;;;;;5114416;28;20043;-79
2022/01/03 12:39:32;;;;;;;22.05;4.85;;;;;;;;;;5108242;28;20052;-79
2022/01/03 12:41:58;;;;;;;25.17;5.72;;;;;;;;;;5097637;28;20047;-77
2022/01/03 12:44:43;;;;;;;22.25;5.45;;;;;;;;;;5097646;28;20443;-77
2022/01/03 12:47:17;;;;;;;24.45;6.00;;;;;;;;;;5080740;28;20055;-77
2022/01/03 12:49:46;;;;;;;29.02;6.00;;;;;;;;;;5113455;28;20039;-79
2022/01/03 12:52:13;;;;;;;24.60;5.90;;;;;;;;;;5096839;28;20043;-81
2022/01/03 12:54:40;;;;;;;25.40;5.50;;;;;;;;;;5079864;28;20065;-75
2022/01/03 12:57:15;;;;;;;23.85;5.38;;;;;;;;;;5114936;28;20051;-76
2022/01/03 12:59:44;;;;;;;24.13;5.22;;;;;;;;;;5096688;28;20031;-82
2022/01/03 13:02:38;;;;;;;21.77;4.97;;;;;;;;;;5080701;28;20137;-79
2022/01/03 13:05:23;;;;;;;28.00;6.28;;;;;;;;;;5084117;28;20097;-83
2022/01/03 13:07:49;;;;;;;20.00;5.95;;;;;;;;;;5071962;27;20059;-82
2022/01/03 13:10:21;;;;;;;26.33;5.85;;;;;;;;;;5085563;28;20115;-84
2022/01/03 13:12:50;;;;;;;28.40;5.90;;;;;;;;;;5080587;28;20044;-81
2022/01/03 13:15:20;;;;;;;24.77;5.85;;;;;;;;;;5079733;28;20486;-78
2022/01/03 13:17:46;;;;;;;25.38;5.35;;;;;;;;;;5096024;28;20075;-81
2022/01/03 13:20:13;;;;;;;29.20;5.32;;;;;;;;;;5092448;28;20465;-81
2022/01/03 13:22:39;;;;;;;19.50;5.03;;;;;;;;;;5086756;28;20096;-78
2022/01/03 13:25:05;;;;;;;24.88;5.68;;;;;;;;;;5080134;28;20031;-81
2022/01/03 13:27:31;;;;;;;23.95;5.15;;;;;;;;;;5078536;28;20040;-81
2022/01/03 13:29:58;;;;;;;29.20;5.90;;;;;;;;;;5079650;28;20064;-82
2022/01/03 13:32:32;;;;;;;25.38;6.25;;;;;;;;;;5080473;28;20169;-81
2022/01/03 13:34:59;;;;;;;31.08;6.88;;;;;;;;;;5079966;28;20057;-83
2022/01/03 13:37:29;;;;;;;26.60;5.45;;;;;;;;;;5080301;28;20090;-78
2022/01/03 13:39:56;;;;;;;25.85;6.18;;;;;;;;;;5113774;28;20574;-77
2022/01/03 13:42:32;;;;;;;26.90;5.82;;;;;;;;;;5077282;28;20047;-80
2022/01/03 13:45:05;;;;;;;26.52;6.20;;;;;;;;;;5079559;28;20043;-79
2022/01/03 13:50:32;;;;;;;22.80;6.45;;;;;;;;;;5107130;28;20112;-81
2022/01/03 13:53:03;;;;;;;31.63;6.63;;;;;;;;;;5078369;28;20447;-80
2022/01/03 13:55:31;;;;;;;28.15;6.45;;;;;;;;;;5089300;28;20051;-81
2022/01/03 13:58:16;;;;;;;27.48;5.82;;;;;;;;;;5087974;28;20061;-79
2022/01/03 14:00:48;;;;;;;23.02;5.60;;;;;;;;;;5091148;28;20469;-81
2022/01/03 14:03:14;;;;;;;32.97;7.28;;;;;;;;;;5080634;28;20100;-80
2022/01/03 14:05:41;;;;;;;30.90;5.90;;;;;;;;;;5100369;28;20066;-82
2022/01/03 14:08:07;;;;;;;32.03;6.50;;;;;;;;;;5092568;27;20497;-81
2022/01/03 14:10:39;;;;;;;24.15;6.32;;;;;;;;;;5063571;28;20043;-82
2022/01/03 14:13:06;;;;;;;20.98;5.57;;;;;;;;;;5080873;28;20043;-83
2022/01/03 14:15:34;;;;;;;26.83;5.97;;;;;;;;;;5064244;28;20051;-85
2022/01/03 14:18:01;;;;;;;25.55;6.20;;;;;;;;;;5080362;28;20055;-81
2022/01/03 14:20:27;;;;;;;25.00;7.32;;;;;;;;;;5063788;28;20059;-84
2022/01/03 14:22:53;;;;;;;33.25;5.82;;;;;;;;;;5079358;28;20422;-81
2022/01/03 14:25:24;;;;;;;28.35;6.22;;;;;;;;;;5063214;28;20467;-81
2022/01/03 14:28:02;;;;;;;25.30;5.95;;;;;;;;;;5080028;28;20048;-81
2022/01/03 14:30:32;;;;;;;30.15;6.72;;;;;;;;;;5072233;28;20471;-82
2022/01/03 14:33:00;;;;;;;32.35;6.05;;;;;;;;;;5076722;28;20040;-79
2022/01/03 14:35:29;;;;;;;31.13;6.65;;;;;;;;;;5066197;28;20101;-76
2022/01/03 14:38:14;;;;;;;27.45;6.15;;;;;;;;;;5062795;28;20036;-79
2022/01/03 14:40:51;;;;;;;30.55;6.68;;;;;;;;;;5062330;28;20044;-79
2022/01/03 14:43:21;;;;;;;26.50;6.35;;;;;;;;;;5062838;28;20044;-78
2022/01/03 14:45:49;;;;;;;29.00;6.55;;;;;;;;;;5079159;28;20047;-79
2022/01/03 14:48:20;;;;;;;34.70;6.90;;;;;;;;;;5079230;28;20101;-77
2022/01/03 14:50:46;;;;;;;26.52;6.03;;;;;;;;;;5062939;28;20055;-78
2022/01/03 14:53:12;;;;;;;33.63;6.60;;;;;;;;;;5079247;28;20043;-78
2022/01/03 14:55:40;;;;;;;26.70;6.53;;;;;;;;;;5078311;28;20048;-77
2022/01/03 14:58:07;;;;;;;38.83;6.50;;;;;;;;;;5097117;28;20204;-79
2022/01/03 15:00:34;;;;;;;27.83;6.03;;;;;;;;;;5079431;28;20044;-77
2022/01/03 15:03:03;;;;;;;32.30;7.68;;;;;;;;;;5079287;28;20371;-78
2022/01/03 15:05:29;;;;;;;27.60;5.68;;;;;;;;;;5079347;28;20044;-78
2022/01/03 15:07:55;;;;;;;33.08;7.60;;;;;;;;;;5078723;28;20485;-78
2022/01/03 15:10:22;;;;;;;31.20;6.80;;;;;;;;;;5079402;28;20040;-78